Dades meteomassalio
Diari Summary for Octubre 22, 2017 Units:  English    Metric   Both
« Previous Day
Next Day »
Diari Semanal Mensual Anual Personalitzat
  Maxima: Minima: Mijana:
Temperatura: TemperatureC °F 10.6 °F 14.4 °F
Rosada: DewpointC °F 5.1 °F 6.8 °F
Humitat: Humidity % 47 % 61 %
Velocitat del vent: WindSpeedKMH mph 0.0 mph 25 mph
Racha vent: WindSpeedGustKMH mph - -
Vent:- - SSW
Pressio: PressurehPa in 1026.6 in -
Pluja: 0.0 in    
Historical Graphs
 
 
Tabular Data for Octubre 22, 2017
Time Temperature Dew Point Pressure Wind Wind Speed Wind Gust Humidity Rainfall Rate (Hourly) solar Conditions
TemperatureC °F DewpointC °F PressurehPa in Calm     Humidity % HourlyPrecipMM in SolarRadiationWatts/m^2 W/m2 Conditions
00:03 15.6 °F 8.6 °F 1028.3 in SSW 14.8 mph 14.8 mph 63 % 0.0 in 0.0 W/m2 CLR
00:08 15.6 °F 8.6 °F 1028.3 in SSW 22.2 mph 22.2 mph 63 % 0.0 in 0.0 W/m2 CLR
00:13 15.6 °F 8.6 °F 1028.3 in SSW 14.5 mph 14.5 mph 63 % 0.0 in 0.0 W/m2 CLR
00:18 15.6 °F 8.3 °F 1028.3 in SSW 20.4 mph 20.4 mph 62 % 0.0 in 0.0 W/m2 CLR
00:23 15.6 °F 8.1 °F 1028.3 in SW 25.9 mph 25.9 mph 61 % 0.0 in 0.0 W/m2 CLR
00:28 15.6 °F 8.1 °F 1028.3 in SSW 24.1 mph 24.1 mph 61 % 0.0 in 0.0 W/m2 CLR
00:33 15.6 °F 7.8 °F 1028.3 in SSW 20.4 mph 20.4 mph 60 % 0.0 in 0.0 W/m2 CLR
00:38 15.6 °F 7.8 °F 1028.3 in South 20.4 mph 20.4 mph 60 % 0.0 in 0.0 W/m2 CLR
00:44 15.0 °F 7.3 °F 1028.7 in SSW 16.7 mph 16.7 mph 60 % 0.0 in 0.0 W/m2 CLR
00:49 15.0 °F 7.3 °F 1028.7 in SSW 18.5 mph 18.5 mph 60 % 0.0 in 0.0 W/m2 CLR
00:54 15.0 °F 7.3 °F 1028.3 in SSW 9.7 mph 9.7 mph 60 % 0.0 in 0.0 W/m2 CLR
00:59 15.0 °F 7.3 °F 1028.3 in SSW 22.5 mph 22.5 mph 60 % 0.0 in 0.0 W/m2 CLR
01:04 15.0 °F 7.3 °F 1028.3 in SSW 20.4 mph 20.4 mph 60 % 0.0 in 0.0 W/m2 CLR
01:09 15.0 °F 7.3 °F 1028.3 in SSW 20.4 mph 20.4 mph 60 % 0.0 in 0.0 W/m2 CLR
01:14 15.0 °F 7.3 °F 1028.3 in SSW 16.7 mph 16.7 mph 60 % 0.0 in 0.0 W/m2 CLR
01:19 15.0 °F 7.3 °F 1028.3 in SSW 25.9 mph 25.9 mph 60 % 0.0 in 0.0 W/m2 CLR
01:24 15.0 °F 7.3 °F 1028.3 in SSW 31.5 mph 31.5 mph 60 % 0.0 in 0.0 W/m2 CLR
01:29 15.0 °F 7.3 °F 1028.3 in SSW 25.9 mph 25.9 mph 60 % 0.0 in 0.0 W/m2 CLR
01:34 15.0 °F 7.3 °F 1028.3 in SSW 19.3 mph 19.3 mph 60 % 0.0 in 0.0 W/m2 CLR
01:39 15.0 °F 7.3 °F 1028.7 in SSW 24.1 mph 24.1 mph 60 % 0.0 in 0.0 W/m2 CLR
01:44 15.0 °F 7.1 °F 1028.3 in SW 20.4 mph 20.4 mph 59 % 0.0 in 0.0 W/m2 CLR
01:49 14.4 °F 6.5 °F 1028.3 in SSW 29.6 mph 29.6 mph 59 % 0.0 in 0.0 W/m2 CLR
01:54 14.4 °F 6.8 °F 1028.7 in SSW 17.7 mph 17.7 mph 60 % 0.0 in 0.0 W/m2 CLR
01:59 14.4 °F 6.8 °F 1028.3 in SSW 20.4 mph 20.4 mph 60 % 0.0 in 0.0 W/m2 CLR
02:04 14.4 °F 6.8 °F 1028.7 in SSW 18.5 mph 18.5 mph 60 % 0.0 in 0.0 W/m2 CLR
02:09 14.4 °F 6.8 °F 1028.7 in SSW 22.2 mph 22.2 mph 60 % 0.0 in 0.0 W/m2 CLR
02:14 14.4 °F 6.8 °F 1028.7 in SSW 20.4 mph 20.4 mph 60 % 0.0 in 0.0 W/m2 CLR
02:19 14.4 °F 7.0 °F 1028.7 in SSW 27.8 mph 27.8 mph 61 % 0.0 in 0.0 W/m2 CLR
02:24 13.9 °F 6.5 °F 1028.7 in SSW 18.5 mph 18.5 mph 61 % 0.0 in 0.0 W/m2 CLR
02:29 13.9 °F 6.7 °F 1028.7 in SW 25.9 mph 25.9 mph 62 % 0.0 in 0.0 W/m2 CLR
02:34 13.9 °F 6.7 °F 1028.3 in SW 16.1 mph 16.1 mph 62 % 0.0 in 0.0 W/m2 CLR
02:39 13.9 °F 6.7 °F 1028.3 in SSW 18.5 mph 18.5 mph 62 % 0.0 in 0.0 W/m2 CLR
02:44 13.9 °F 6.9 °F 1028.7 in WSW 27.8 mph 27.8 mph 63 % 0.0 in 0.0 W/m2 CLR
02:49 13.9 °F 6.9 °F 1028.7 in SSW 18.5 mph 18.5 mph 63 % 0.0 in 0.0 W/m2 CLR
02:54 13.9 °F 6.9 °F 1028.7 in SW 31.5 mph 31.5 mph 63 % 0.0 in 0.0 W/m2 CLR
02:59 13.9 °F 7.2 °F 1028.7 in SW 31.5 mph 31.5 mph 64 % 0.0 in 0.0 W/m2 CLR
03:04 13.9 °F 7.2 °F 1028.7 in SW 20.4 mph 20.4 mph 64 % 0.0 in 0.0 W/m2 CLR
03:09 13.9 °F 7.2 °F 1028.7 in SSW 25.9 mph 25.9 mph 64 % 0.0 in 0.0 W/m2 CLR
03:14 13.3 °F 6.9 °F 1028.7 in SW 18.5 mph 18.5 mph 65 % 0.0 in 0.0 W/m2 CLR
03:19 13.3 °F 6.9 °F 1028.7 in SW 18.5 mph 18.5 mph 65 % 0.0 in 0.0 W/m2 CLR
03:24 13.3 °F 6.9 °F 1028.7 in SW 31.5 mph 31.5 mph 65 % 0.0 in 0.0 W/m2 CLR
03:29 13.3 °F 6.9 °F 1028.3 in SSW 31.5 mph 31.5 mph 65 % 0.0 in 0.0 W/m2 CLR
03:34 13.3 °F 7.1 °F 1028.7 in SW 25.9 mph 25.9 mph 66 % 0.0 in 0.0 W/m2 CLR
03:37 13.3 °F 7.1 °F 1028.7 in SW 25.9 mph 25.9 mph 66 % 0.0 in 0.0 W/m2 CLR
03:42 13.3 °F 7.1 °F 1028.7 in SSW 25.9 mph 25.9 mph 66 % 0.0 in 0.0 W/m2 CLR
03:48 13.3 °F 7.1 °F 1028.7 in SW 29.0 mph 29.0 mph 66 % 0.0 in 0.0 W/m2 CLR
03:52 13.3 °F 7.1 °F 1028.7 in SW 29.6 mph 29.6 mph 66 % 0.0 in 0.0 W/m2 CLR
03:58 13.3 °F 7.3 °F 1028.7 in SW 31.5 mph 31.5 mph 67 % 0.0 in 0.0 W/m2 CLR
04:03 13.3 °F 7.3 °F 1028.7 in WSW 29.6 mph 29.6 mph 67 % 0.0 in 0.0 W/m2 CLR
04:08 12.8 °F 6.8 °F 1028.3 in SSW 22.2 mph 22.2 mph 67 % 0.0 in 0.0 W/m2 CLR
04:13 12.8 °F 6.8 °F 1028.7 in SW 25.9 mph 25.9 mph 67 % 0.0 in 0.0 W/m2 CLR
04:18 12.8 °F 6.8 °F 1028.3 in SW 27.4 mph 27.4 mph 67 % 0.0 in 0.0 W/m2 CLR
04:23 12.8 °F 6.8 °F 1028.3 in SSW 22.2 mph 22.2 mph 67 % 0.0 in 0.0 W/m2 CLR
04:28 12.8 °F 6.8 °F 1028.3 in SSW 22.5 mph 22.5 mph 67 % 0.0 in 0.0 W/m2 CLR
04:30 12.8 °F 6.8 °F 1028.3 in SSW 24.1 mph 24.1 mph 67 % 0.0 in 0.0 W/m2 CLR
04:35 12.8 °F 7.0 °F 1028.3 in SSW 24.1 mph 24.1 mph 68 % 0.0 in 0.0 W/m2 CLR
04:40 12.8 °F 7.0 °F 1028.7 in SSW 24.1 mph 24.1 mph 68 % 0.0 in 0.0 W/m2 CLR
04:50 12.8 °F 7.0 °F 1028.3 in SSW 22.2 mph 22.2 mph 68 % 0.0 in 0.0 W/m2 CLR
04:55 12.2 °F 6.5 °F 1028.3 in SSW 22.2 mph 22.2 mph 68 % 0.0 in 0.0 W/m2 CLR
05:00 12.8 °F 7.0 °F 1028.3 in SSW 18.5 mph 18.5 mph 68 % 0.0 in 0.0 W/m2 CLR
05:05 12.2 °F 6.5 °F 1028.3 in SSW 24.1 mph 24.1 mph 68 % 0.0 in 0.0 W/m2 CLR
05:10 12.2 °F 6.5 °F 1028.3 in SSW 29.6 mph 29.6 mph 68 % 0.0 in 0.0 W/m2 CLR
05:19 12.2 °F 6.7 °F 1028.3 in SSW 25.9 mph 25.9 mph 69 % 0.0 in 0.0 W/m2 CLR
05:21 12.2 °F 6.7 °F 1028.3 in SSW 20.4 mph 20.4 mph 69 % 0.0 in 0.0 W/m2 CLR
05:24 12.2 °F 6.7 °F 1028.3 in SSW 25.9 mph 25.9 mph 69 % 0.0 in 0.0 W/m2 CLR
05:26 12.2 °F 6.7 °F 1028.3 in SSW 22.2 mph 22.2 mph 69 % 0.0 in 0.0 W/m2 CLR
05:30 12.2 °F 6.7 °F 1028.3 in SSW 27.8 mph 27.8 mph 69 % 0.0 in 0.0 W/m2 CLR
05:35 12.2 °F 6.7 °F 1028.3 in SSW 25.9 mph 25.9 mph 69 % 0.0 in 0.0 W/m2 CLR
05:40 12.2 °F 6.7 °F 1028.3 in South 24.1 mph 24.1 mph 69 % 0.0 in 0.0 W/m2 CLR
05:45 12.2 °F 6.9 °F 1028.3 in SSW 22.2 mph 22.2 mph 70 % 0.0 in 0.0 W/m2 CLR
05:50 12.2 °F 6.9 °F 1028.3 in SSW 17.7 mph 18.0 mph 70 % 0.0 in 0.0 W/m2 CLR
05:55 11.7 °F 6.4 °F 1028.3 in SSW 18.5 mph 19.6 mph 70 % 0.0 in 0.0 W/m2 CLR
06:00 11.7 °F 6.4 °F 1028.3 in South 25.9 mph 25.9 mph 70 % 0.0 in 0.0 W/m2 CLR
06:05 11.7 °F 6.4 °F 1028.3 in South 20.4 mph 20.4 mph 70 % 0.0 in 0.0 W/m2 CLR
06:10 11.7 °F 6.4 °F 1028.3 in SSW 22.2 mph 22.2 mph 70 % 0.0 in 0.0 W/m2 CLR
06:15 11.7 °F 6.4 °F 1028.3 in SSW 18.5 mph 18.5 mph 70 % 0.0 in 0.0 W/m2 CLR
06:20 11.7 °F 6.4 °F 1028.3 in SSW 20.4 mph 20.4 mph 70 % 0.0 in 0.0 W/m2 CLR
06:25 11.7 °F 6.4 °F 1028.7 in SSW 22.2 mph 22.2 mph 70 % 0.0 in 0.0 W/m2 CLR
06:30 11.7 °F 6.4 °F 1028.7 in SW 22.2 mph 22.2 mph 70 % 0.0 in 0.0 W/m2 CLR
06:31 11.7 °F 6.4 °F 1028.7 in SSW 22.2 mph 22.2 mph 70 % 0.0 in 0.0 W/m2 CLR
06:36 11.7 °F 6.4 °F 1028.7 in SSW 18.5 mph 18.5 mph 70 % 0.0 in 0.0 W/m2 CLR
06:41 11.7 °F 6.6 °F 1028.7 in SSW 20.4 mph 20.4 mph 71 % 0.0 in 0.0 W/m2 CLR
06:46 11.7 °F 6.4 °F 1028.7 in SSW 24.1 mph 24.1 mph 70 % 0.0 in 0.0 W/m2 CLR
06:51 11.7 °F 6.4 °F 1028.7 in South 18.5 mph 18.5 mph 70 % 0.0 in 0.0 W/m2 CLR
06:56 11.7 °F 6.4 °F 1028.7 in SSW 20.4 mph 20.4 mph 70 % 0.0 in 0.0 W/m2 CLR
07:01 11.1 °F 5.8 °F 1028.7 in South 18.5 mph 18.5 mph 70 % 0.0 in 0.0 W/m2 CLR
07:06 11.1 °F 6.1 °F 1028.7 in South 25.9 mph 25.9 mph 71 % 0.0 in 0.0 W/m2 CLR
07:11 11.1 °F 5.8 °F 1028.7 in South 20.4 mph 20.4 mph 70 % 0.0 in 0.0 W/m2 CLR
07:12 11.1 °F 5.8 °F 1028.7 in SSW 24.1 mph 24.1 mph 70 % 0.0 in 0.0 W/m2 CLR
07:17 11.1 °F 5.8 °F 1028.7 in SSW 19.3 mph 19.3 mph 70 % 0.0 in 0.0 W/m2 CLR
07:22 11.1 °F 6.1 °F 1028.7 in South 19.3 mph 19.3 mph 71 % 0.0 in 0.0 W/m2 CLR
07:27 11.1 °F 6.1 °F 1028.7 in South 18.5 mph 18.5 mph 71 % 0.0 in 0.0 W/m2 CLR
07:32 11.1 °F 6.1 °F 1028.7 in South 14.8 mph 14.8 mph 71 % 0.0 in 0.0 W/m2 CLR
07:37 10.6 °F 5.5 °F 1028.7 in South 20.4 mph 20.4 mph 71 % 0.0 in 0.0 W/m2 CLR
07:42 11.1 °F 6.3 °F 1029.0 in South 25.9 mph 25.9 mph 72 % 0.0 in 0.0 W/m2 CLR
07:47 10.6 °F 5.7 °F 1028.7 in South 25.9 mph 25.9 mph 72 % 0.0 in 0.0 W/m2 CLR
07:52 11.1 °F 6.3 °F 1028.7 in South 22.2 mph 22.2 mph 72 % 0.0 in 0.0 W/m2 CLR
07:57 10.6 °F 5.7 °F 1028.7 in SSE 13.0 mph 13.0 mph 72 % 0.0 in 0.0 W/m2 CLR
08:02 10.6 °F 5.9 °F 1029.0 in South 16.7 mph 16.7 mph 73 % 0.0 in 0.0 W/m2 CLR
08:07 10.6 °F 5.9 °F 1029.0 in SSE 16.7 mph 16.7 mph 73 % 0.0 in 0.0 W/m2 CLR
08:12 10.6 °F 5.9 °F 1029.0 in South 18.5 mph 18.5 mph 73 % 0.0 in 0.0 W/m2 OVC
08:17 11.1 °F 6.7 °F 1029.0 in SSE 16.7 mph 16.7 mph 74 % 0.0 in 0.0 W/m2 OVC
08:22 10.6 °F 6.1 °F 1029.0 in SSE 14.8 mph 14.8 mph 74 % 0.0 in 5.0 W/m2 OVC
08:27 10.6 °F 6.1 °F 1029.0 in SSE 18.5 mph 18.5 mph 74 % 0.0 in 9.0 W/m2 BKN
08:32 10.6 °F 6.3 °F 1029.0 in SSE 16.7 mph 16.7 mph 75 % 0.0 in 12.0 W/m2 BKN
08:37 10.6 °F 6.3 °F 1029.0 in South 19.3 mph 19.3 mph 75 % 0.0 in 16.0 W/m2 BKN
08:42 10.6 °F 6.3 °F 1029.3 in SSE 18.5 mph 18.5 mph 75 % 0.0 in 19.0 W/m2 BKN
08:47 10.6 °F 6.3 °F 1029.3 in South 19.3 mph 19.3 mph 75 % 0.0 in 25.0 W/m2 BKN
08:52 10.6 °F 6.1 °F 1029.3 in SSE 16.7 mph 16.7 mph 74 % 0.0 in 33.0 W/m2 BKN
08:57 10.6 °F 6.1 °F 1029.3 in SSE 16.7 mph 16.7 mph 74 % 0.0 in 42.0 W/m2 BKN
09:02 10.6 °F 6.1 °F 1029.3 in SSE 16.1 mph 16.1 mph 74 % 0.0 in 56.0 W/m2 SCT
09:07 10.6 °F 6.1 °F 1029.3 in South 16.7 mph 16.7 mph 74 % 0.0 in 65.0 W/m2 SCT
09:12 11.1 °F 6.7 °F 1029.3 in SE 11.1 mph 11.1 mph 74 % 0.0 in 69.0 W/m2 FEW
09:17 11.1 °F 6.4 °F 1029.3 in SSW 16.7 mph 16.7 mph 73 % 0.0 in 77.0 W/m2 FEW
09:22 11.1 °F 6.3 °F 1029.3 in SSE 18.5 mph 18.5 mph 72 % 0.0 in 95.0 W/m2 FEW
09:27 11.7 °F 6.4 °F 1029.3 in SSW 24.1 mph 24.1 mph 70 % 0.0 in 116.0 W/m2 CLR
09:32 11.7 °F 6.2 °F 1029.3 in SSE 24.1 mph 24.1 mph 69 % 0.0 in 121.0 W/m2 CLR
09:37 11.7 °F 6.2 °F 1029.7 in SSW 22.5 mph 22.5 mph 69 % 0.0 in 158.0 W/m2 CLR
09:42 12.2 °F 6.5 °F 1029.7 in SSW 22.2 mph 22.2 mph 68 % 0.0 in 125.0 W/m2 CLR
09:47 12.8 °F 7.0 °F 1029.7 in South 18.5 mph 18.5 mph 68 % 0.0 in 132.0 W/m2 CLR
09:52 12.8 °F 7.0 °F 1029.3 in SSW 20.9 mph 20.9 mph 68 % 0.0 in 216.0 W/m2 CLR
09:57 12.8 °F 6.8 °F 1029.7 in SW 24.1 mph 24.1 mph 67 % 0.0 in 234.0 W/m2 CLR
10:02 13.3 °F 7.3 °F 1029.3 in SSW 24.1 mph 24.1 mph 67 % 0.0 in 239.0 W/m2 CLR
10:07 13.3 °F 7.3 °F 1029.3 in SSW 24.1 mph 24.1 mph 67 % 0.0 in 234.0 W/m2 CLR
10:12 13.3 °F 7.1 °F 1029.3 in South 31.5 mph 31.5 mph 66 % 0.0 in 258.0 W/m2 CLR
10:17 13.3 °F 6.9 °F 1029.7 in SSW 25.9 mph 25.9 mph 65 % 0.0 in 229.0 W/m2 CLR
10:18 13.3 °F 7.1 °F 1029.7 in SSW 20.9 mph 20.9 mph 66 % 0.0 in 285.0 W/m2 CLR
10:23 13.9 °F 7.6 °F 1029.7 in SW 27.8 mph 27.8 mph 66 % 0.0 in 274.0 W/m2 CLR
10:28 13.9 °F 7.4 °F 1029.7 in SW 25.7 mph 25.7 mph 65 % 0.0 in 318.0 W/m2 CLR
10:33 13.9 °F 7.4 °F 1029.7 in SW 24.1 mph 24.1 mph 65 % 0.0 in 330.0 W/m2 CLR
10:38 13.9 °F 7.4 °F 1029.7 in South 24.1 mph 24.1 mph 65 % 0.0 in 345.0 W/m2 CLR
10:43 13.9 °F 7.2 °F 1029.7 in SW 20.4 mph 20.4 mph 64 % 0.0 in 360.0 W/m2 CLR
10:48 14.4 °F 7.5 °F 1029.7 in SW 33.3 mph 33.3 mph 63 % 0.0 in 383.0 W/m2 CLR
10:53 14.4 °F 7.5 °F 1029.7 in SW 31.5 mph 31.5 mph 63 % 0.0 in 390.0 W/m2 CLR
10:58 14.4 °F 7.5 °F 1029.7 in SW 31.5 mph 31.5 mph 63 % 0.0 in 371.0 W/m2 CLR
11:03 14.4 °F 7.2 °F 1029.7 in SW 25.9 mph 25.9 mph 62 % 0.0 in 318.0 W/m2 CLR
11:13 14.4 °F 7.0 °F 1029.7 in SSW 31.5 mph 31.5 mph 61 % 0.0 in 455.0 W/m2 CLR
11:18 15.0 °F 7.6 °F 1029.7 in WSW 27.8 mph 27.8 mph 61 % 0.0 in 438.0 W/m2 CLR
11:23 15.0 °F 7.1 °F 1029.7 in SW 29.6 mph 29.6 mph 59 % 0.0 in 364.0 W/m2 CLR
11:28 15.0 °F 7.1 °F 1029.7 in SSW 25.9 mph 25.9 mph 59 % 0.0 in 462.0 W/m2 CLR
11:33 15.0 °F 7.1 °F 1029.7 in SSW 29.6 mph 29.6 mph 59 % 0.0 in 503.0 W/m2 CLR
11:38 15.6 °F 7.3 °F 1029.7 in SW 30.6 mph 30.6 mph 58 % 0.0 in 390.0 W/m2 CLR
11:43 15.6 °F 7.6 °F 1029.7 in SW 31.5 mph 31.5 mph 59 % 0.0 in 512.0 W/m2 CLR
11:49 16.1 °F 7.8 °F 1029.7 in WSW 37.0 mph 37.0 mph 58 % 0.0 in 548.0 W/m2 CLR
11:54 15.6 °F 7.3 °F 1029.3 in SSW 31.5 mph 31.5 mph 58 % 0.0 in 478.0 W/m2 CLR
11:59 15.6 °F 7.3 °F 1029.3 in SW 31.5 mph 31.5 mph 58 % 0.0 in 418.0 W/m2 CLR
12:04 16.1 °F 7.8 °F 1029.3 in South 27.8 mph 27.8 mph 58 % 0.0 in 357.0 W/m2 CLR
12:09 15.6 °F 7.3 °F 1029.3 in SSW 33.3 mph 33.3 mph 58 % 0.0 in 471.0 W/m2 CLR
12:14 16.1 °F 7.8 °F 1029.3 in SW 24.1 mph 24.1 mph 58 % 0.0 in 622.0 W/m2 CLR
12:19 16.7 °F 7.8 °F 1029.3 in WSW 33.8 mph 33.8 mph 56 % 0.0 in 438.0 W/m2 CLR
12:24 16.1 °F 7.3 °F 1029.3 in SW 29.6 mph 29.6 mph 56 % 0.0 in 594.0 W/m2 CLR
12:29 16.7 °F 7.8 °F 1029.3 in South 31.5 mph 31.5 mph 56 % 0.0 in 598.0 W/m2 CLR
12:34 16.7 °F 7.6 °F 1029.3 in SSW 38.9 mph 38.9 mph 55 % 0.0 in 547.0 W/m2 CLR
12:39 16.7 °F 7.3 °F 1029.0 in SSW 31.5 mph 31.5 mph 54 % 0.0 in 582.0 W/m2 CLR
12:44 16.7 °F 7.6 °F 1029.0 in SW 31.5 mph 31.5 mph 55 % 0.0 in 592.0 W/m2 CLR
12:49 17.2 °F 7.8 °F 1029.0 in SW 27.8 mph 27.8 mph 54 % 0.0 in 598.0 W/m2 CLR
12:54 17.2 °F 7.8 °F 1029.0 in SW 22.2 mph 22.2 mph 54 % 0.0 in 606.0 W/m2 CLR
12:55 17.8 °F 8.3 °F 1028.7 in SSW 30.6 mph 30.6 mph 54 % 0.0 in 608.0 W/m2 CLR
13:00 17.8 °F 8.1 °F 1028.7 in SW 22.2 mph 22.2 mph 53 % 0.0 in 617.0 W/m2 CLR
13:05 17.8 °F 7.8 °F 1028.7 in SSW 22.5 mph 22.5 mph 52 % 0.0 in 515.0 W/m2 CLR
13:10 17.2 °F 7.3 °F 1028.7 in SSW 35.2 mph 35.2 mph 52 % 0.0 in 285.0 W/m2 CLR
13:15 17.2 °F 7.6 °F 1028.7 in SW 29.6 mph 29.6 mph 53 % 0.0 in 580.0 W/m2 CLR
13:20 17.8 °F 8.1 °F 1028.7 in SSW 33.3 mph 33.3 mph 53 % 0.0 in 636.0 W/m2 CLR
13:25 18.3 °F 8.3 °F 1028.3 in SSW 33.3 mph 33.3 mph 52 % 0.0 in 534.0 W/m2 CLR
13:30 18.3 °F 8.3 °F 1028.3 in SW 24.1 mph 24.1 mph 52 % 0.0 in 517.0 W/m2 CLR
13:35 18.3 °F 8.0 °F 1028.3 in SW 35.2 mph 35.2 mph 51 % 0.0 in 621.0 W/m2 CLR
13:40 18.3 °F 8.0 °F 1028.0 in SW 29.6 mph 29.6 mph 51 % 0.0 in 598.0 W/m2 CLR
13:45 18.3 °F 8.0 °F 1028.0 in SW 42.6 mph 42.6 mph 51 % 0.0 in 612.0 W/m2 CLR
13:50 18.9 °F 8.5 °F 1028.0 in SW 29.0 mph 29.0 mph 51 % 0.0 in 587.0 W/m2 CLR
13:55 18.3 °F 8.3 °F 1028.0 in SW 18.5 mph 18.5 mph 52 % 0.0 in 617.0 W/m2 CLR
14:00 18.3 °F 7.7 °F 1028.0 in WSW 40.7 mph 40.7 mph 50 % 0.0 in 526.0 W/m2 CLR
14:05 18.3 °F 8.0 °F 1028.0 in SW 31.5 mph 31.5 mph 51 % 0.0 in 599.0 W/m2 CLR
14:10 18.3 °F 8.0 °F 1027.7 in WSW 38.6 mph 38.6 mph 51 % 0.0 in 636.0 W/m2 CLR
14:15 18.3 °F 7.7 °F 1027.7 in SSW 37.0 mph 37.0 mph 50 % 0.0 in 629.0 W/m2 CLR
14:20 18.3 °F 7.4 °F 1027.7 in SW 33.3 mph 33.3 mph 49 % 0.0 in 647.0 W/m2 CLR
14:25 18.3 °F 7.4 °F 1027.7 in SSW 37.0 mph 37.0 mph 49 % 0.0 in 432.0 W/m2 CLR
14:30 18.9 °F 7.9 °F 1027.7 in SW 37.0 mph 37.0 mph 49 % 0.0 in 605.0 W/m2 CLR
14:35 18.9 °F 7.9 °F 1027.7 in SW 31.5 mph 31.5 mph 49 % 0.0 in 589.0 W/m2 CLR
14:40 18.9 °F 7.6 °F 1027.7 in WSW 31.5 mph 31.5 mph 48 % 0.0 in 598.0 W/m2 CLR
14:45 18.9 °F 7.6 °F 1027.3 in WSW 40.7 mph 40.7 mph 48 % 0.0 in 589.0 W/m2 CLR
14:50 18.9 °F 7.6 °F 1027.7 in West 31.5 mph 31.5 mph 48 % 0.0 in 585.0 W/m2 CLR
14:55 18.9 °F 7.6 °F 1027.3 in WSW 29.0 mph 29.0 mph 48 % 0.0 in 570.0 W/m2 CLR
15:00 18.9 °F 7.6 °F 1027.3 in SW 38.6 mph 38.6 mph 48 % 0.0 in 570.0 W/m2 CLR
15:05 18.9 °F 7.3 °F 1027.3 in WSW 31.5 mph 31.5 mph 47 % 0.0 in 564.0 W/m2 CLR
15:10 18.9 °F 7.3 °F 1027.3 in WSW 37.0 mph 37.0 mph 47 % 0.0 in 555.0 W/m2 CLR
15:15 18.9 °F 7.6 °F 1027.3 in SW 38.9 mph 38.9 mph 48 % 0.0 in 545.0 W/m2 CLR
15:20 19.4 °F 7.8 °F 1027.3 in WSW 31.5 mph 31.5 mph 47 % 0.0 in 538.0 W/m2 CLR
15:25 19.4 °F 7.8 °F 1027.0 in SSW 31.5 mph 31.5 mph 47 % 0.0 in 531.0 W/m2 CLR
15:30 19.4 °F 8.2 °F 1027.0 in SW 41.8 mph 41.8 mph 48 % 0.0 in 522.0 W/m2 CLR
15:35 19.4 °F 7.8 °F 1027.3 in WSW 33.3 mph 33.3 mph 47 % 0.0 in 513.0 W/m2 CLR
15:40 18.9 °F 7.3 °F 1027.3 in WSW 35.2 mph 35.2 mph 47 % 0.0 in 506.0 W/m2 CLR
15:45 18.9 °F 7.3 °F 1027.0 in SW 30.6 mph 30.6 mph 47 % 0.0 in 494.0 W/m2 CLR
15:50 18.9 °F 7.6 °F 1027.0 in SW 31.5 mph 31.5 mph 48 % 0.0 in 494.0 W/m2 CLR
15:55 18.3 °F 6.8 °F 1027.0 in WSW 25.9 mph 25.9 mph 47 % 0.0 in 482.0 W/m2 CLR
16:00 18.3 °F 6.8 °F 1027.0 in WSW 33.3 mph 33.3 mph 47 % 0.0 in 469.0 W/m2 CLR
16:02 18.3 °F 6.8 °F 1027.0 in WSW 33.3 mph 33.3 mph 47 % 0.0 in 469.0 W/m2 CLR
16:07 18.3 °F 7.1 °F 1027.0 in West 33.3 mph 33.3 mph 48 % 0.0 in 457.0 W/m2 CLR
16:12 18.9 °F 7.9 °F 1027.0 in West 35.2 mph 35.2 mph 49 % 0.0 in 441.0 W/m2 CLR
16:17 18.3 °F 7.1 °F 1027.0 in WSW 40.7 mph 40.7 mph 48 % 0.0 in 436.0 W/m2 CLR
16:22 18.3 °F 7.4 °F 1027.0 in WSW 33.3 mph 33.3 mph 49 % 0.0 in 425.0 W/m2 CLR
16:27 18.9 °F 7.6 °F 1027.0 in WSW 42.6 mph 42.6 mph 48 % 0.0 in 413.0 W/m2 CLR
16:32 18.3 °F 7.1 °F 1026.6 in SW 38.9 mph 38.9 mph 48 % 0.0 in 404.0 W/m2 CLR
16:42 18.3 °F 6.8 °F 1026.6 in WSW 38.6 mph 38.6 mph 47 % 0.0 in 381.0 W/m2 CLR
16:47 18.3 °F 6.8 °F 1026.6 in WSW 29.6 mph 29.6 mph 47 % 0.0 in 380.0 W/m2 CLR
16:52 18.3 °F 7.1 °F 1026.6 in WSW 29.6 mph 29.6 mph 48 % 0.0 in 285.0 W/m2 CLR
16:57 18.3 °F 7.4 °F 1026.6 in SSW 35.2 mph 35.2 mph 49 % 0.0 in 272.0 W/m2 CLR
17:02 17.8 °F 6.6 °F 1026.6 in SW 33.3 mph 33.3 mph 48 % 0.0 in 248.0 W/m2 CLR
17:07 17.8 °F 6.9 °F 1026.6 in SW 37.0 mph 37.0 mph 49 % 0.0 in 308.0 W/m2 CLR
17:12 17.8 °F 6.9 °F 1026.6 in West 35.2 mph 35.2 mph 49 % 0.0 in 225.0 W/m2 CLR
17:13 17.8 °F 6.9 °F 1026.6 in WSW 42.6 mph 42.6 mph 49 % 0.0 in 257.0 W/m2 CLR
17:18 17.8 °F 7.2 °F 1026.6 in West 37.0 mph 37.0 mph 50 % 0.0 in 264.0 W/m2 CLR
17:24 17.8 °F 7.5 °F 1026.6 in WSW 38.9 mph 38.9 mph 51 % 0.0 in 229.0 W/m2 CLR
17:29 17.8 °F 7.5 °F 1026.6 in West 46.3 mph 46.3 mph 51 % 0.0 in 220.0 W/m2 CLR
17:34 17.2 °F 7.0 °F 1026.6 in SW 40.7 mph 40.7 mph 51 % 0.0 in 178.0 W/m2 CLR
17:39 17.2 °F 7.0 °F 1026.6 in SW 38.9 mph 38.9 mph 51 % 0.0 in 183.0 W/m2 CLR
17:43 17.2 °F 7.0 °F 1026.6 in WSW 24.1 mph 24.1 mph 51 % 0.0 in 193.0 W/m2 CLR
17:49 16.7 °F 6.5 °F 1026.6 in WSW 42.6 mph 42.6 mph 51 % 0.0 in 149.0 W/m2 CLR
17:54 16.7 °F 6.8 °F 1026.6 in WSW 35.2 mph 35.2 mph 52 % 0.0 in 141.0 W/m2 CLR
17:59 16.7 °F 6.5 °F 1026.6 in SW 35.2 mph 35.2 mph 51 % 0.0 in 160.0 W/m2 CLR
18:04 16.7 °F 6.2 °F 1026.6 in WSW 44.4 mph 44.4 mph 50 % 0.0 in 149.0 W/m2 CLR
18:09 16.7 °F 6.2 °F 1027.0 in WSW 40.7 mph 40.7 mph 50 % 0.0 in 137.0 W/m2 CLR
18:14 16.7 °F 6.5 °F 1027.0 in SW 33.8 mph 33.8 mph 51 % 0.0 in 105.0 W/m2 CLR
18:19 16.1 °F 5.9 °F 1027.0 in SW 37.0 mph 37.0 mph 51 % 0.0 in 81.0 W/m2 CLR
18:24 16.1 °F 6.2 °F 1027.0 in SW 31.5 mph 31.5 mph 52 % 0.0 in 67.0 W/m2 FEW
18:29 16.1 °F 6.2 °F 1027.3 in WSW 37.0 mph 37.0 mph 52 % 0.0 in 56.0 W/m2 SCT
18:34 16.1 °F 6.5 °F 1027.3 in SW 33.3 mph 33.3 mph 53 % 0.0 in 40.0 W/m2 SCT
18:39 16.1 °F 6.5 °F 1027.3 in WSW 30.6 mph 30.6 mph 53 % 0.0 in 30.0 W/m2 BKN
18:44 15.6 °F 6.0 °F 1027.7 in WSW 31.5 mph 31.5 mph 53 % 0.0 in 18.0 W/m2 BKN
18:49 15.6 °F 6.6 °F 1027.3 in SW 29.6 mph 29.6 mph 55 % 0.0 in 14.0 W/m2 BKN
18:54 15.6 °F 6.6 °F 1027.3 in SW 29.6 mph 29.6 mph 55 % 0.0 in 12.0 W/m2 BKN
18:59 15.0 °F 6.3 °F 1027.3 in SW 35.2 mph 35.2 mph 56 % 0.0 in 11.0 W/m2 BKN
19:04 15.0 °F 6.3 °F 1027.7 in SW 31.5 mph 31.5 mph 56 % 0.0 in 5.0 W/m2 OVC
19:09 15.0 °F 6.6 °F 1027.7 in WSW 33.3 mph 33.3 mph 57 % 0.0 in 0.0 W/m2 OVC
19:14 15.0 °F 6.6 °F 1027.7 in WSW 40.7 mph 40.7 mph 57 % 0.0 in 0.0 W/m2 OVC
19:19 15.0 °F 6.6 °F 1027.7 in WSW 38.9 mph 38.9 mph 57 % 0.0 in 0.0 W/m2 OVC
19:24 15.0 °F 6.6 °F 1027.7 in SW 24.1 mph 24.1 mph 57 % 0.0 in 0.0 W/m2 CLR
19:29 14.4 °F 6.3 °F 1027.7 in SW 24.1 mph 24.1 mph 58 % 0.0 in 0.0 W/m2 CLR
19:34 15.0 °F 7.1 °F 1028.0 in WSW 24.1 mph 24.1 mph 59 % 0.0 in 0.0 W/m2 CLR
19:39 14.4 °F 6.5 °F 1028.0 in West 37.0 mph 37.0 mph 59 % 0.0 in 0.0 W/m2 CLR
19:44 14.4 °F 6.5 °F 1028.0 in SW 25.9 mph 25.9 mph 59 % 0.0 in 0.0 W/m2 CLR
19:49 14.4 °F 6.8 °F 1028.0 in SW 31.5 mph 31.5 mph 60 % 0.0 in 0.0 W/m2 CLR
19:54 14.4 °F 6.8 °F 1028.0 in SSW 20.9 mph 20.9 mph 60 % 0.0 in 0.0 W/m2 CLR
19:59 14.4 °F 6.8 °F 1028.3 in South 24.1 mph 24.1 mph 60 % 0.0 in 0.0 W/m2 CLR
20:04 14.4 °F 6.8 °F 1028.3 in SW 24.1 mph 24.1 mph 60 % 0.0 in 0.0 W/m2 CLR
20:09 14.4 °F 6.8 °F 1028.3 in SW 20.4 mph 20.4 mph 60 % 0.0 in 0.0 W/m2 CLR
20:14 14.4 °F 6.8 °F 1028.3 in SSW 20.4 mph 20.4 mph 60 % 0.0 in 0.0 W/m2 CLR
20:19 13.9 °F 6.2 °F 1028.3 in SSW 25.9 mph 25.9 mph 60 % 0.0 in 0.0 W/m2 CLR
20:24 14.4 °F 7.0 °F 1028.3 in SW 22.2 mph 22.2 mph 61 % 0.0 in 0.0 W/m2 CLR
20:29 13.9 °F 6.5 °F 1028.3 in SW 16.7 mph 16.7 mph 61 % 0.0 in 0.0 W/m2 CLR
20:34 13.9 °F 6.7 °F 1028.7 in SW 22.2 mph 22.2 mph 62 % 0.0 in 0.0 W/m2 CLR
20:39 13.9 °F 6.7 °F 1028.7 in SSW 20.4 mph 20.4 mph 62 % 0.0 in 0.0 W/m2 CLR
20:44 13.9 °F 6.7 °F 1028.7 in SW 22.5 mph 22.5 mph 62 % 0.0 in 0.0 W/m2 CLR
20:49 13.9 °F 6.7 °F 1029.0 in SSW 24.1 mph 24.1 mph 62 % 0.0 in 0.0 W/m2 CLR
20:54 13.9 °F 6.7 °F 1029.0 in SSW 22.2 mph 22.2 mph 62 % 0.0 in 0.0 W/m2 CLR
20:59 13.9 °F 6.7 °F 1029.0 in South 11.1 mph 11.1 mph 62 % 0.0 in 0.0 W/m2 CLR
21:00 13.9 °F 6.7 °F 1029.0 in South 11.1 mph 11.1 mph 62 % 0.0 in 0.0 W/m2 CLR
21:05 13.3 °F 6.4 °F 1029.0 in SSW 9.7 mph 9.7 mph 63 % 0.0 in 0.0 W/m2 CLR
21:10 13.3 °F 6.4 °F 1029.0 in SSW 22.2 mph 22.2 mph 63 % 0.0 in 0.0 W/m2 CLR
21:15 13.3 °F 6.4 °F 1029.0 in SW 18.5 mph 18.5 mph 63 % 0.0 in 0.0 W/m2 CLR
21:20 12.8 °F 5.9 °F 1029.0 in SW 9.3 mph 9.3 mph 63 % 0.0 in 0.0 W/m2 CLR
21:25 12.8 °F 5.9 °F 1029.0 in SSW 17.7 mph 17.7 mph 63 % 0.0 in 0.0 W/m2 CLR
21:30 13.3 °F 6.4 °F 1029.3 in SSW 13.0 mph 13.0 mph 63 % 0.0 in 0.0 W/m2 CLR
21:35 13.3 °F 6.4 °F 1029.3 in South 8.0 mph 8.0 mph 63 % 0.0 in 0.0 W/m2 CLR
21:40 13.3 °F 6.4 °F 1029.3 in South 17.7 mph 17.7 mph 63 % 0.0 in 0.0 W/m2 CLR
21:45 13.3 °F 6.4 °F 1029.3 in SSW 16.7 mph 16.7 mph 63 % 0.0 in 0.0 W/m2 CLR
21:50 13.3 °F 6.4 °F 1029.3 in SSW 12.9 mph 12.9 mph 63 % 0.0 in 0.0 W/m2 CLR
21:55 12.8 °F 5.9 °F 1029.3 in SSW 18.5 mph 18.5 mph 63 % 0.0 in 0.0 W/m2 CLR
22:00 12.8 °F 5.9 °F 1029.3 in SSW 22.2 mph 22.2 mph 63 % 0.0 in 0.0 W/m2 CLR
22:05 13.3 °F 6.4 °F 1029.3 in SSE 14.8 mph 14.8 mph 63 % 0.0 in 0.0 W/m2 CLR
22:10 12.8 °F 5.9 °F 1029.3 in SSE 1.9 mph   63 % 0.0 in 0.0 W/m2 CLR
22:15 12.8 °F 6.1 °F 1029.3 in SSE 9.3 mph 9.3 mph 64 % 0.0 in 0.0 W/m2 CLR
22:20 12.2 °F 5.6 °F 1029.3 in SSE 9.3 mph 9.3 mph 64 % 0.0 in 0.0 W/m2 CLR
22:25 11.7 °F 5.1 °F 1029.3 in South 11.1 mph 11.1 mph 64 % 0.0 in 0.0 W/m2 CLR
22:30 11.7 °F 5.1 °F 1029.3 in South 7.4 mph 7.4 mph 64 % 0.0 in 0.0 W/m2 CLR
22:32 11.7 °F 5.1 °F 1029.3 in Calm     64 % 0.0 in 0.0 W/m2 CLR
22:37 11.7 °F 5.3 °F 1029.3 in SSE 7.4 mph 7.4 mph 65 % 0.0 in 0.0 W/m2 CLR
22:42 11.7 °F 5.3 °F 1029.3 in South 18.5 mph 18.5 mph 65 % 0.0 in 0.0 W/m2 CLR
22:47 11.7 °F 5.5 °F 1029.3 in South 18.5 mph 18.5 mph 66 % 0.0 in 0.0 W/m2 CLR
22:48 11.7 °F 5.3 °F 1029.3 in SSW 24.1 mph 24.1 mph 65 % 0.0 in 0.0 W/m2 CLR
22:53 11.7 °F 5.3 °F 1029.3 in South 14.8 mph 14.8 mph 65 % 0.0 in 0.0 W/m2 CLR
22:58 11.7 °F 5.3 °F 1029.3 in South 18.5 mph 18.5 mph 65 % 0.0 in 0.0 W/m2 CLR
23:03 11.7 °F 5.3 °F 1029.3 in South 16.7 mph 16.7 mph 65 % 0.0 in 0.0 W/m2 CLR
23:08 12.2 °F 5.8 °F 1029.3 in South 19.3 mph 19.3 mph 65 % 0.0 in 0.0 W/m2 CLR
23:13 12.2 °F 5.8 °F 1029.3 in SSE 16.7 mph 16.7 mph 65 % 0.0 in 0.0 W/m2 CLR
23:18 12.2 °F 5.8 °F 1029.3 in SE 9.7 mph 9.7 mph 65 % 0.0 in 0.0 W/m2 CLR
23:23 12.2 °F 6.1 °F 1029.3 in SSE 9.7 mph 9.7 mph 66 % 0.0 in 0.0 W/m2 CLR
23:28 11.7 °F 5.5 °F 1029.3 in SSE 9.3 mph 9.3 mph 66 % 0.0 in 0.0 W/m2 CLR
23:33 11.7 °F 5.5 °F 1029.3 in South 14.5 mph 14.5 mph 66 % 0.0 in 0.0 W/m2 CLR
23:38 11.7 °F 5.7 °F 1029.3 in South 18.5 mph 18.5 mph 67 % 0.0 in 0.0 W/m2 CLR
23:43 11.7 °F 5.7 °F 1029.3 in South 20.4 mph 20.4 mph 67 % 0.0 in 0.0 W/m2 CLR
23:48 11.7 °F 5.7 °F 1029.3 in South 14.8 mph 14.8 mph 67 % 0.0 in 0.0 W/m2 CLR
23:53 11.1 °F 5.2 °F 1029.7 in South 13.0 mph 13.0 mph 67 % 0.0 in 0.0 W/m2 CLR
23:58 11.1 °F 5.2 °F 1029.3 in SSW 18.5 mph 18.5 mph 67 % 0.0 in 0.0 W/m2 CLR
Lo Temps de Massalio
Compliments of Weather Underground - 1.25 mb